Back to Top

Language: 

My Weather Underground Personal Weather Station Historical Data with Graphs...

Delerius Weather Station Historical Data
Daily Summary for February 17, 2017 Units:  Metric    English   Both
« Previous Day
Next Day »
Daily Weekly Monthly Yearly Custom
  High: Low: Average:
Temperature: 10.6 °C 6.9 °C 8.6 °C
Dew Point: 8.2 °C 5.7 °C 6.8 °C
Humidity: 94 % 80 % 89 %
Wind Speed: 12.9 km/h 0 km/h 3.7 km/h
Wind Gust: 19.3 km/h - -
Wind:- - WSW
Pressure: 1027 hPa 1023.9 hPa -
Precipitation: 0 mm    
Historical Graphs
 
 
Tabular Data for February 17, 2017
Time Temperature Dew Point Pressure Wind Wind Speed Wind Gust Humidity Rainfall Rate (Hourly) solar Conditions
00:05 8.2 °C 6.6 °C 1025.3 hPa West 9.7 km/h 19.3 km/h 90 % 0 mm 0 W/m2
00:15 8.2 °C 6.7 °C 1024.9 hPa WSW 9.7 km/h 9.7 km/h 90 % 0 mm 0 W/m2
00:20 8.2 °C 6.7 °C 1024.9 hPa WSW 9.7 km/h 11.3 km/h 90 % 0 mm 0 W/m2
00:25 8.2 °C 6.7 °C 1024.9 hPa West 11.3 km/h 11.3 km/h 90 % 0 mm 0 W/m2
00:30 8.3 °C 6.6 °C 1024.9 hPa SW 11.3 km/h 12.9 km/h 89 % 0 mm 0 W/m2
00:40 8.3 °C 6.6 °C 1025.3 hPa West 9.7 km/h 9.7 km/h 89 % 0 mm 0 W/m2
00:45 8.3 °C 6.6 °C 1025.3 hPa WNW 9.7 km/h 14.5 km/h 89 % 0 mm 0 W/m2
00:50 8.3 °C 6.6 °C 1025.3 hPa West 9.7 km/h 9.7 km/h 89 % 0 mm 0 W/m2
00:55 8.3 °C 6.6 °C 1025.3 hPa West 11.3 km/h 12.9 km/h 89 % 0 mm 0 W/m2
01:00 8.2 °C 6.5 °C 1025.3 hPa WNW 9.7 km/h 9.7 km/h 89 % 0 mm 0 W/m2
01:10 8.2 °C 6.7 °C 1025.3 hPa West 12.9 km/h 12.9 km/h 90 % 0 mm 0 W/m2
01:15 8.3 °C 6.7 °C 1025.3 hPa WSW 11.3 km/h 19.3 km/h 90 % 0 mm 0 W/m2
01:25 8.2 °C 6.7 °C 1025.3 hPa West 6.4 km/h 11.3 km/h 90 % 0 mm 0 W/m2
01:30 8.2 °C 6.7 °C 1025.3 hPa West 6.4 km/h 19.3 km/h 90 % 0 mm 0 W/m2
01:35 8.3 °C 6.7 °C 1025.3 hPa West 8 km/h 19.3 km/h 90 % 0 mm 0 W/m2
01:45 8.3 °C 6.6 °C 1025.6 hPa WSW 9.7 km/h 19.3 km/h 89 % 0 mm 0 W/m2
01:50 8.4 °C 6.7 °C 1025.3 hPa NW 9.7 km/h 9.7 km/h 89 % 0 mm 0 W/m2
01:55 8.3 °C 6.6 °C 1025.3 hPa West 9.7 km/h 14.5 km/h 89 % 0 mm 0 W/m2
02:00 8.3 °C 6.6 °C 1025.3 hPa WNW 12.9 km/h 12.9 km/h 89 % 0 mm 0 W/m2
02:10 8.1 °C 6.4 °C 1024.9 hPa WNW 12.9 km/h 12.9 km/h 89 % 0 mm 0 W/m2
02:15 8.1 °C 6.3 °C 1025.3 hPa WNW 12.9 km/h 19.3 km/h 89 % 0 mm 0 W/m2
02:20 7.9 °C 6.2 °C 1025.3 hPa WNW 11.3 km/h 11.3 km/h 89 % 0 mm 0 W/m2
02:25 7.8 °C 6.3 °C 1025.3 hPa WNW 9.7 km/h 19.3 km/h 90 % 0 mm 0 W/m2
02:35 7.7 °C 6.1 °C 1025.3 hPa WNW 8 km/h 19.3 km/h 90 % 0 mm 0 W/m2
02:40 7.6 °C 6 °C 1024.9 hPa WNW 6.4 km/h 19.3 km/h 90 % 0 mm 0 W/m2
02:45 7.5 °C 5.9 °C 1024.9 hPa WNW 6.4 km/h 19.3 km/h 90 % 0 mm 0 W/m2
02:55 7.3 °C 5.9 °C 1024.9 hPa WNW 6.4 km/h 19.3 km/h 91 % 0 mm 0 W/m2
03:00 7.4 °C 6 °C 1024.9 hPa WNW 8 km/h 19.3 km/h 91 % 0 mm 0 W/m2
03:10 7.4 °C 6 °C 1024.9 hPa WNW 8 km/h 19.3 km/h 91 % 0 mm 0 W/m2
03:15 7.4 °C 6 °C 1024.9 hPa NW 8 km/h 19.3 km/h 91 % 0 mm 0 W/m2
03:20 7.3 °C 5.9 °C 1024.6 hPa WNW 8 km/h 8 km/h 91 % 0 mm 0 W/m2
03:30 7.3 °C 5.9 °C 1024.9 hPa NW 6.4 km/h 6.4 km/h 91 % 0 mm 0 W/m2
03:35 7.3 °C 5.9 °C 1024.9 hPa NNW 3.2 km/h 19.3 km/h 91 % 0 mm 0 W/m2
03:40 7.2 °C 5.8 °C 1024.9 hPa SSW 1.6 km/h 19.3 km/h 91 % 0 mm 0 W/m2
03:45 7.2 °C 5.8 °C 1024.9 hPa SSW 1.6 km/h 19.3 km/h 91 % 0 mm 0 W/m2
03:55 7 °C 5.8 °C 1024.9 hPa Calm   19.3 km/h 92 % 0 mm 0 W/m2
04:00 6.9 °C 5.7 °C 1024.9 hPa Calm   19.3 km/h 92 % 0 mm 0 W/m2
04:05 6.9 °C 5.7 °C 1025.3 hPa Calm   19.3 km/h 92 % 0 mm 0 W/m2
04:10 6.9 °C 5.7 °C 1025.3 hPa Calm   19.3 km/h 92 % 0 mm 0 W/m2
04:20 6.9 °C 5.9 °C 1025.3 hPa Calm   19.3 km/h 93 % 0 mm 0 W/m2
04:25 7 °C 5.9 °C 1025.3 hPa Calm   19.3 km/h 93 % 0 mm 0 W/m2
04:30 7 °C 5.9 °C 1025.3 hPa SSW 1.6 km/h 1.6 km/h 93 % 0 mm 0 W/m2
04:40 7 °C 5.9 °C 1025.3 hPa Calm   19.3 km/h 93 % 0 mm 0 W/m2
04:45 7 °C 5.9 °C 1025.3 hPa Calm   19.3 km/h 93 % 0 mm 0 W/m2
04:50 6.9 °C 5.9 °C 1025.3 hPa Calm   19.3 km/h 93 % 0 mm 0 W/m2
04:55 7 °C 5.9 °C 1024.9 hPa SSW 1.6 km/h 19.3 km/h 93 % 0 mm 0 W/m2
05:05 7.1 °C 6 °C 1025.3 hPa SW 1.6 km/h 19.3 km/h 93 % 0 mm 0 W/m2
05:10 7.1 °C 6 °C 1025.3 hPa SW 1.6 km/h 19.3 km/h 93 % 0 mm 0 W/m2
05:15 7.1 °C 6.2 °C 1025.6 hPa SW 1.6 km/h 19.3 km/h 94 % 0 mm 0 W/m2
05:20 7.2 °C 6.3 °C 1025.6 hPa SW 1.6 km/h 1.6 km/h 94 % 0 mm 0 W/m2
05:30 7.3 °C 6.3 °C 1025.3 hPa WSW 1.6 km/h 19.3 km/h 93 % 0 mm 0 W/m2
05:35 7.3 °C 6.3 °C 1025.3 hPa WSW 1.6 km/h 19.3 km/h 93 % 0 mm 0 W/m2
05:40 7.3 °C 6.3 °C 1025.3 hPa WSW 1.6 km/h 1.6 km/h 93 % 0 mm 0 W/m2
05:45 7.3 °C 6.3 °C 1025.6 hPa Calm   19.3 km/h 93 % 0 mm 0 W/m2
05:55 7.3 °C 6.3 °C 1025.3 hPa Calm   19.3 km/h 93 % 0 mm 0 W/m2
06:00 7.3 °C 6.3 °C 1025.3 hPa NW 1.6 km/h 19.3 km/h 93 % 0 mm 0 W/m2
06:05 7.3 °C 6.4 °C 1025.3 hPa NW 4.8 km/h 19.3 km/h 94 % 0 mm 0 W/m2
06:15 7.4 °C 6.6 °C 1025.3 hPa WNW 3.2 km/h 19.3 km/h 94 % 0 mm 0 W/m2
06:20 7.4 °C 6.6 °C 1025.3 hPa WNW 1.6 km/h 1.6 km/h 94 % 0 mm 0 W/m2
06:25 7.4 °C 6.4 °C 1025.3 hPa Calm   19.3 km/h 93 % 0 mm 0 W/m2
06:30 7.4 °C 6.4 °C 1025.3 hPa Calm   19.3 km/h 93 % 0 mm 0 W/m2
06:40 7.4 °C 6.6 °C 1025.6 hPa WNW 1.6 km/h 1.6 km/h 94 % 0 mm 0 W/m2
06:45 7.4 °C 6.6 °C 1025.6 hPa Calm   19.3 km/h 94 % 0 mm 0 W/m2
06:50 7.4 °C 6.5 °C 1025.6 hPa Calm   19.3 km/h 94 % 0 mm 0 W/m2
07:00 7.5 °C 6.6 °C 1025.6 hPa WNW 1.6 km/h 19.3 km/h 94 % 0 mm 0 W/m2
07:05 7.5 °C 6.6 °C 1025.6 hPa WNW 1.6 km/h 19.3 km/h 94 % 0 mm 0 W/m2
07:10 7.6 °C 6.7 °C 1025.6 hPa WNW 1.6 km/h 1.6 km/h 94 % 0 mm 0 W/m2
07:15 7.6 °C 6.7 °C 1025.6 hPa WNW 1.6 km/h 19.3 km/h 94 % 0 mm 0 W/m2
07:25 7.6 °C 6.7 °C 1025.6 hPa WNW 1.6 km/h 19.3 km/h 94 % 0 mm 5 W/m2
07:30 7.6 °C 6.7 °C 1026 hPa WNW 1.6 km/h 1.6 km/h 94 % 0 mm 9 W/m2
07:35 7.7 °C 6.8 °C 1026 hPa Calm   19.3 km/h 94 % 0 mm 11 W/m2
07:45 7.7 °C 6.8 °C 1026 hPa Calm   19.3 km/h 94 % 0 mm 14 W/m2
07:50 7.7 °C 6.8 °C 1026 hPa Calm   19.3 km/h 94 % 0 mm 16 W/m2
07:55 7.7 °C 6.8 °C 1026 hPa Calm   19.3 km/h 94 % 0 mm 19 W/m2
08:00 7.6 °C 6.7 °C 1026 hPa Calm   19.3 km/h 94 % 0 mm 25 W/m2
08:05 7.7 °C 6.8 °C 1026 hPa Calm   19.3 km/h 94 % 0 mm 23 W/m2
08:10 7.7 °C 6.8 °C 1026.3 hPa Calm   19.3 km/h 94 % 0 mm 26 W/m2
08:15 7.7 °C 6.8 °C 1026.3 hPa Calm   19.3 km/h 94 % 0 mm 33 W/m2
08:20 7.7 °C 6.8 °C 1026.3 hPa Calm   19.3 km/h 94 % 0 mm 33 W/m2
08:30 7.8 °C 6.9 °C 1026.3 hPa WNW 1.6 km/h 19.3 km/h 94 % 0 mm 28 W/m2
08:35 7.9 °C 7.1 °C 1026.3 hPa WNW 1.6 km/h 19.3 km/h 94 % 0 mm 30 W/m2
08:40 8 °C 7.1 °C 1026.3 hPa Calm   19.3 km/h 94 % 0 mm 44 W/m2
08:50 8.1 °C 7.2 °C 1026.3 hPa WNW 1.6 km/h 19.3 km/h 94 % 0 mm 56 W/m2
08:55 8.2 °C 7.3 °C 1026.6 hPa WNW 3.2 km/h 19.3 km/h 94 % 0 mm 56 W/m2
09:00 8.3 °C 7.4 °C 1026.6 hPa WNW 1.6 km/h 19.3 km/h 94 % 0 mm 60 W/m2
09:10 8.5 °C 7.6 °C 1026.6 hPa West 3.2 km/h 3.2 km/h 94 % 0 mm 49 W/m2
09:15 8.6 °C 7.7 °C 1026.6 hPa West 3.2 km/h 19.3 km/h 94 % 0 mm 60 W/m2
09:20 8.6 °C 7.6 °C 1026.6 hPa West 1.6 km/h 19.3 km/h 93 % 0 mm 69 W/m2
09:25 8.7 °C 7.6 °C 1026.6 hPa WNW 3.2 km/h 19.3 km/h 93 % 0 mm 62 W/m2
09:35 8.8 °C 7.7 °C 1026.6 hPa WNW 3.2 km/h 19.3 km/h 93 % 0 mm 83 W/m2
09:40 8.8 °C 7.7 °C 1026.6 hPa WNW 4.8 km/h 4.8 km/h 93 % 0 mm 65 W/m2
09:50 8.8 °C 7.6 °C 1026.6 hPa WNW 3.2 km/h 19.3 km/h 92 % 0 mm 62 W/m2
10:00 8.9 °C 7.7 °C 1026.6 hPa WNW 3.2 km/h 3.2 km/h 92 % 0 mm 76 W/m2
10:05 8.9 °C 7.7 °C 1027 hPa WNW 3.2 km/h 19.3 km/h 92 % 0 mm 77 W/m2
10:10 9 °C 7.8 °C 1026.6 hPa WNW 3.2 km/h 19.3 km/h 92 % 0 mm 90 W/m2
10:15 9.1 °C 7.8 °C 1026.6 hPa WNW 3.2 km/h 19.3 km/h 92 % 0 mm 83 W/m2
10:20 9.1 °C 7.7 °C 1027 hPa WNW 4.8 km/h 19.3 km/h 91 % 0 mm 70 W/m2
10:25 9.1 °C 7.7 °C 1027 hPa WSW 4.8 km/h 19.3 km/h 91 % 0 mm 83 W/m2
10:30 9.2 °C 7.8 °C 1026.6 hPa WNW 4.8 km/h 19.3 km/h 91 % 0 mm 95 W/m2
10:40 9.3 °C 7.9 °C 1027 hPa WNW 4.8 km/h 19.3 km/h 91 % 0 mm 100 W/m2
10:50 9.4 °C 7.8 °C 1026.6 hPa WNW 6.4 km/h 6.4 km/h 90 % 0 mm 137 W/m2
10:55 9.5 °C 7.9 °C 1026.6 hPa WNW 4.8 km/h 19.3 km/h 90 % 0 mm 118 W/m2
11:00 9.6 °C 8 °C 1026.6 hPa WNW 1.6 km/h 19.3 km/h 90 % 0 mm 127 W/m2
11:05 9.7 °C 8.1 °C 1026.6 hPa WNW 1.6 km/h 19.3 km/h 90 % 0 mm 134 W/m2
11:15 9.8 °C 8.1 °C 1026.6 hPa West 4.8 km/h 19.3 km/h 89 % 0 mm 137 W/m2
11:25 10 °C 8.1 °C 1026.6 hPa WNW 6.4 km/h 19.3 km/h 88 % 0 mm 109 W/m2
11:35 10.1 °C 8.1 °C 1026.6 hPa WNW 4.8 km/h 19.3 km/h 87 % 0 mm 125 W/m2
11:40 10.2 °C 8.2 °C 1026.6 hPa NW 3.2 km/h 19.3 km/h 87 % 0 mm 114 W/m2
11:50 10.3 °C 8.1 °C 1026.6 hPa West 3.2 km/h 3.2 km/h 86 % 0 mm 132 W/m2
11:55 10.4 °C 8.2 °C 1026.6 hPa West 1.6 km/h 19.3 km/h 86 % 0 mm 130 W/m2
12:00 10.4 °C 8 °C 1026.6 hPa West 1.6 km/h 19.3 km/h 85 % 0 mm 134 W/m2
12:10 10.5 °C 8.1 °C 1026.6 hPa West 3.2 km/h 3.2 km/h 85 % 0 mm 113 W/m2
12:15 10.6 °C 7.9 °C 1026.6 hPa WSW 4.8 km/h 4.8 km/h 84 % 0 mm 135 W/m2
12:25 10.6 °C 7.8 °C 1026.6 hPa West 6.4 km/h 19.3 km/h 83 % 0 mm 116 W/m2
12:30 10.4 °C 7.8 °C 1026.6 hPa SW 9.7 km/h 19.3 km/h 84 % 0 mm 125 W/m2
12:35 10.4 °C 7.8 °C 1026.6 hPa WSW 9.7 km/h 19.3 km/h 84 % 0 mm 121 W/m2
12:40 10.3 °C 7.7 °C 1026.6 hPa SW 8 km/h 19.3 km/h 84 % 0 mm 107 W/m2
16:35 10.5 °C 7.2 °C 1024.9 hPa South 3.2 km/h 6.4 km/h 80 % 0 mm 21 W/m2
16:45 10.5 °C 7.2 °C 1024.9 hPa South 1.6 km/h 1.6 km/h 80 % 0 mm 18 W/m2
16:50 10.4 °C 7.2 °C 1024.9 hPa SSE 1.6 km/h 1.6 km/h 80 % 0 mm 11 W/m2
16:55 10.4 °C 7.3 °C 1024.9 hPa South 1.6 km/h 8 km/h 81 % 0 mm 7 W/m2
17:00 10.3 °C 7.2 °C 1024.9 hPa SSW 3.2 km/h 3.2 km/h 81 % 0 mm 5 W/m2
17:10 10.2 °C 7.1 °C 1024.9 hPa SSW 1.6 km/h 1.6 km/h 81 % 0 mm 0 W/m2
17:15 10.2 °C 7.3 °C 1024.9 hPa SSE 1.6 km/h 3.2 km/h 82 % 0 mm 0 W/m2
17:20 10.1 °C 7.2 °C 1024.9 hPa SE 3.2 km/h 3.2 km/h 82 % 0 mm 0 W/m2
17:25 10.1 °C 7.2 °C 1024.9 hPa SSE 3.2 km/h 6.4 km/h 82 % 0 mm 0 W/m2
17:30 10.1 °C 7.1 °C 1024.9 hPa South 3.2 km/h 3.2 km/h 82 % 0 mm 0 W/m2
17:40 9.9 °C 7.2 °C 1024.9 hPa South 1.6 km/h 11.3 km/h 83 % 0 mm 0 W/m2
17:45 9.9 °C 7.1 °C 1024.9 hPa South 1.6 km/h 11.3 km/h 83 % 0 mm 0 W/m2
17:50 9.8 °C 7.1 °C 1024.9 hPa SE 3.2 km/h 11.3 km/h 83 % 0 mm 0 W/m2
17:55 9.8 °C 7.2 °C 1024.9 hPa SE 3.2 km/h 11.3 km/h 84 % 0 mm 0 W/m2
18:00 9.7 °C 7.2 °C 1024.9 hPa SE 3.2 km/h 11.3 km/h 84 % 0 mm 0 W/m2
18:10 9.6 °C 7.1 °C 1024.9 hPa SE 4.8 km/h 11.3 km/h 84 % 0 mm 0 W/m2
18:15 9.6 °C 7.2 °C 1024.9 hPa SSE 4.8 km/h 11.3 km/h 85 % 0 mm 0 W/m2
18:20 9.5 °C 7.1 °C 1024.9 hPa SSE 4.8 km/h 11.3 km/h 85 % 0 mm 0 W/m2
18:25 9.5 °C 7.1 °C 1024.9 hPa SE 4.8 km/h 11.3 km/h 85 % 0 mm 0 W/m2
18:35 9.4 °C 7.2 °C 1024.9 hPa SE 4.8 km/h 11.3 km/h 86 % 0 mm 0 W/m2
18:40 9.5 °C 7.3 °C 1024.9 hPa SE 4.8 km/h 4.8 km/h 86 % 0 mm 0 W/m2
18:45 9.4 °C 7.2 °C 1024.9 hPa SE 4.8 km/h 9.7 km/h 86 % 0 mm 0 W/m2
18:50 9.4 °C 7.2 °C 1024.9 hPa SSE 4.8 km/h 11.3 km/h 86 % 0 mm 0 W/m2
18:55 9.4 °C 7.2 °C 1024.9 hPa SSE 4.8 km/h 11.3 km/h 86 % 0 mm 0 W/m2
19:00 9.4 °C 7.2 °C 1024.9 hPa SSE 4.8 km/h 4.8 km/h 86 % 0 mm 0 W/m2
19:10 9.3 °C 7.1 °C 1024.6 hPa SSE 3.2 km/h 3.2 km/h 86 % 0 mm 0 W/m2
19:15 9.3 °C 7.1 °C 1024.6 hPa South 3.2 km/h 11.3 km/h 86 % 0 mm 0 W/m2
19:20 9.3 °C 7.1 °C 1024.6 hPa South 1.6 km/h 11.3 km/h 86 % 0 mm 0 W/m2
19:30 9.2 °C 7.2 °C 1024.6 hPa SSW 1.6 km/h 1.6 km/h 87 % 0 mm 0 W/m2
19:40 9.2 °C 7.1 °C 1024.6 hPa Calm   11.3 km/h 87 % 0 mm 0 W/m2
19:45 9.1 °C 7.1 °C 1024.6 hPa SSW 1.6 km/h 11.3 km/h 87 % 0 mm 0 W/m2
19:50 9.1 °C 7.1 °C 1024.6 hPa SSW 1.6 km/h 1.6 km/h 87 % 0 mm 0 W/m2
19:55 9.1 °C 7 °C 1024.6 hPa SSW 1.6 km/h 6.4 km/h 87 % 0 mm 0 W/m2
20:05 9.1 °C 6.8 °C 1024.6 hPa SSW 1.6 km/h 3.2 km/h 86 % 0 mm 0 W/m2
20:10 9.1 °C 6.8 °C 1024.6 hPa SSW 3.2 km/h 3.2 km/h 86 % 0 mm 0 W/m2
20:15 9.1 °C 6.8 °C 1024.6 hPa SW 3.2 km/h 11.3 km/h 86 % 0 mm 0 W/m2
20:20 9.1 °C 6.8 °C 1024.6 hPa SW 3.2 km/h 11.3 km/h 86 % 0 mm 0 W/m2
20:30 9.1 °C 6.7 °C 1024.6 hPa SSW 4.8 km/h 11.3 km/h 85 % 0 mm 0 W/m2
20:40 9.2 °C 6.8 °C 1024.6 hPa SSW 8 km/h 11.3 km/h 85 % 0 mm 0 W/m2
20:45 9.2 °C 6.8 °C 1024.6 hPa SSW 6.4 km/h 11.3 km/h 85 % 0 mm 0 W/m2
20:50 9.2 °C 6.7 °C 1024.6 hPa South 3.2 km/h 3.2 km/h 84 % 0 mm 0 W/m2
20:55 9.2 °C 6.7 °C 1024.6 hPa South 1.6 km/h 11.3 km/h 84 % 0 mm 0 W/m2
21:05 9.1 °C 6.7 °C 1024.6 hPa Calm   11.3 km/h 85 % 0 mm 0 W/m2
21:15 9 °C 6.6 °C 1024.6 hPa Calm   11.3 km/h 85 % 0 mm 0 W/m2
21:20 8.9 °C 6.7 °C 1024.6 hPa Calm   11.3 km/h 86 % 0 mm 0 W/m2
21:25 8.9 °C 6.7 °C 1024.6 hPa Calm   11.3 km/h 86 % 0 mm 0 W/m2
21:30 8.9 °C 6.7 °C 1024.6 hPa SW 1.6 km/h 11.3 km/h 86 % 0 mm 0 W/m2
21:40 9 °C 6.8 °C 1024.6 hPa West 3.2 km/h 3.2 km/h 86 % 0 mm 0 W/m2
21:50 9 °C 6.6 °C 1024.6 hPa South 1.6 km/h 11.3 km/h 85 % 0 mm 0 W/m2
21:55 9 °C 6.6 °C 1024.6 hPa SSW 1.6 km/h 11.3 km/h 85 % 0 mm 0 W/m2
22:05 9.1 °C 6.7 °C 1024.3 hPa South 4.8 km/h 11.3 km/h 85 % 0 mm 0 W/m2
22:10 9.1 °C 6.7 °C 1024.3 hPa SSE 4.8 km/h 4.8 km/h 85 % 0 mm 0 W/m2
22:15 9 °C 6.6 °C 1024.3 hPa SSE 3.2 km/h 11.3 km/h 85 % 0 mm 0 W/m2
22:20 8.9 °C 6.7 °C 1024.3 hPa SSE 1.6 km/h 11.3 km/h 86 % 0 mm 0 W/m2
22:25 8.8 °C 6.6 °C 1024.3 hPa Calm   11.3 km/h 86 % 0 mm 0 W/m2
22:30 8.8 °C 6.6 °C 1024.3 hPa Calm   11.3 km/h 86 % 0 mm 0 W/m2
22:40 8.8 °C 6.6 °C 1024.3 hPa SSE 3.2 km/h 3.2 km/h 86 % 0 mm 0 W/m2
22:45 8.8 °C 6.6 °C 1024.3 hPa SSE 1.6 km/h 11.3 km/h 86 % 0 mm 0 W/m2
22:55 8.8 °C 6.6 °C 1024.3 hPa Calm   11.3 km/h 86 % 0 mm 0 W/m2
23:00 8.8 °C 6.6 °C 1024.3 hPa Calm   11.3 km/h 86 % 0 mm 0 W/m2
23:05 8.8 °C 6.6 °C 1024.3 hPa Calm   11.3 km/h 86 % 0 mm 0 W/m2
23:10 8.8 °C 6.6 °C 1024.3 hPa SSW 1.6 km/h 1.6 km/h 86 % 0 mm 0 W/m2
23:15 8.8 °C 6.6 °C 1024.3 hPa WSW 1.6 km/h 3.2 km/h 86 % 0 mm 0 W/m2
23:25 8.9 °C 6.7 °C 1023.9 hPa WNW 4.8 km/h 9.7 km/h 86 % 0 mm 0 W/m2
23:30 8.9 °C 6.7 °C 1023.9 hPa West 8 km/h 14.5 km/h 86 % 0 mm 0 W/m2
23:35 9.1 °C 6.8 °C 1023.9 hPa WSW 8 km/h 14.5 km/h 86 % 0 mm 0 W/m2
23:40 9.1 °C 6.7 °C 1023.9 hPa SW 8 km/h 8 km/h 85 % 0 mm 0 W/m2
23:50 9.2 °C 6.8 °C 1023.9 hPa WSW 3.2 km/h 11.3 km/h 85 % 0 mm 0 W/m2
23:55 9.2 °C 6.8 °C 1023.9 hPa SW 3.2 km/h 11.3 km/h 85 % 0 mm 0 W/m2
Delerius-Weather
Compliments of Weather Underground - 1.75 mb

Data updates at regular intervals.